Hauptseite
METAR-TAF:

METAR-TAF

Flughäfen :

Flughafen Dakar-Léopold Sédar Senghor

Dakar, Senegal

Breite: 14-44N, Länge: 017-30W, Höhe: 27 m

Beobachtung

Neuester Wetterbericht von vor 1 Stunde und 11 Minuten, um 21:00 UTC
Wind 4 kt aus Nordwest
Temperatur 26°C
Luftfeuchtigkeit 74%
Luftdruck 1011 hPa
Sichtweite: 7000 m

METAR: GOOY 142100Z 32004KT 7000 NSC 26/21 Q1011

Zeit: 22:11 (22:11 UTC)

Prognose

Neuester Wetterbericht von vor 4 Stunden und 41 Minuten, um 17:30 UTC
Gültige Prognose vom 14 um 18 UTC bis 15 um 24 UTC
Wind 8 kt aus Nordwest
Sichtweite: 6000 m

TAF: GOOY 141730Z 1418/1524 32008KT 6000 NSC

Wetterbeobachtungen und Prognosen von mehr als 4000 Flughäfen (METAR und TAF Bericht).

Die verfügbaren Stationen werden durch gelbe und rote Markierungen auf der Karte dargestellt.

Führen Sie die Maus auf sie, um den Namen der Station zu sehen.

Darauf klicken, um die Beobachtung von Wetterbeobachtungen und Prognosen zu sehen.

Um die Karte zu ändern : klicken Sie auf den grünen Tasten mit einem schwarzen Kreuz Zum Vergrößern, auf den grünen Button mit einem Gedankenstrich zu verkleinern, oder auf die grünen Pfeile für benachbarte Karten.


METAR-TAF: